sensor_id;sensor_type;location;lat;lon;timestamp;P1;durP1;ratioP1;P2;durP2;ratioP2
73699;SDS011;62005;50.082;8.988;2023-02-27T00:01:44;7.70;;;2.70;;
73699;SDS011;62005;50.082;8.988;2023-02-27T00:04:10;6.13;;;2.75;;
73699;SDS011;62005;50.082;8.988;2023-02-27T00:06:35;5.20;;;2.53;;
73699;SDS011;62005;50.082;8.988;2023-02-27T00:09:00;8.87;;;2.57;;
73699;SDS011;62005;50.082;8.988;2023-02-27T00:11:26;5.57;;;2.28;;
73699;SDS011;62005;50.082;8.988;2023-02-27T00:13:51;5.97;;;2.15;;
73699;SDS011;62005;50.082;8.988;2023-02-27T00:16:17;5.47;;;2.50;;
73699;SDS011;62005;50.082;8.988;2023-02-27T00:18:42;6.23;;;2.63;;
73699;SDS011;62005;50.082;8.988;2023-02-27T00:21:07;7.03;;;2.00;;
73699;SDS011;62005;50.082;8.988;2023-02-27T00:23:33;10.73;;;2.97;;
73699;SDS011;62005;50.082;8.988;2023-02-27T00:25:59;7.45;;;2.53;;
73699;SDS011;62005;50.082;8.988;2023-02-27T00:28:25;7.15;;;3.10;;
73699;SDS011;62005;50.082;8.988;2023-02-27T00:30:50;7.45;;;2.20;;
73699;SDS011;62005;50.082;8.988;2023-02-27T00:35:43;3.57;;;1.77;;
73699;SDS011;62005;50.082;8.988;2023-02-27T00:38:08;5.40;;;2.20;;
73699;SDS011;62005;50.082;8.988;2023-02-27T00:40:34;4.22;;;2.03;;
73699;SDS011;62005;50.082;8.988;2023-02-27T00:43:03;5.18;;;3.78;;
73699;SDS011;62005;50.082;8.988;2023-02-27T00:45:28;3.95;;;1.73;;
73699;SDS011;62005;50.082;8.988;2023-02-27T00:47:54;7.43;;;2.10;;
73699;SDS011;62005;50.082;8.988;2023-02-27T00:50:22;3.83;;;1.90;;
73699;SDS011;62005;50.082;8.988;2023-02-27T00:52:48;5.68;;;1.90;;
73699;SDS011;62005;50.082;8.988;2023-02-27T00:55:13;7.80;;;2.83;;
73699;SDS011;62005;50.082;8.988;2023-02-27T00:57:38;9.83;;;2.17;;
73699;SDS011;62005;50.082;8.988;2023-02-27T01:00:05;6.90;;;2.30;;
73699;SDS011;62005;50.082;8.988;2023-02-27T01:02:32;5.85;;;2.03;;
73699;SDS011;62005;50.082;8.988;2023-02-27T01:04:57;5.13;;;2.20;;
73699;SDS011;62005;50.082;8.988;2023-02-27T01:07:23;7.75;;;2.15;;
73699;SDS011;62005;50.082;8.988;2023-02-27T01:09:48;5.45;;;2.58;;
73699;SDS011;62005;50.082;8.988;2023-02-27T01:12:14;5.53;;;2.57;;
73699;SDS011;62005;50.082;8.988;2023-02-27T01:14:39;7.07;;;1.77;;
73699;SDS011;62005;50.082;8.988;2023-02-27T01:17:04;7.10;;;3.05;;
73699;SDS011;62005;50.082;8.988;2023-02-27T01:19:30;4.17;;;1.77;;
73699;SDS011;62005;50.082;8.988;2023-02-27T01:21:55;3.60;;;2.58;;
73699;SDS011;62005;50.082;8.988;2023-02-27T01:24:21;3.87;;;1.77;;
73699;SDS011;62005;50.082;8.988;2023-02-27T01:26:46;3.93;;;2.00;;
73699;SDS011;62005;50.082;8.988;2023-02-27T01:29:12;4.53;;;1.70;;
73699;SDS011;62005;50.082;8.988;2023-02-27T01:31:39;3.28;;;1.92;;
73699;SDS011;62005;50.082;8.988;2023-02-27T01:34:04;5.00;;;1.55;;
73699;SDS011;62005;50.082;8.988;2023-02-27T01:36:30;5.20;;;3.37;;
73699;SDS011;62005;50.082;8.988;2023-02-27T01:38:55;5.80;;;1.87;;
73699;SDS011;62005;50.082;8.988;2023-02-27T01:41:20;3.80;;;2.40;;
73699;SDS011;62005;50.082;8.988;2023-02-27T01:46:22;6.00;;;1.63;;
73699;SDS011;62005;50.082;8.988;2023-02-27T01:48:48;3.70;;;1.25;;
73699;SDS011;62005;50.082;8.988;2023-02-27T01:51:17;6.40;;;1.83;;
73699;SDS011;62005;50.082;8.988;2023-02-27T01:53:45;3.92;;;1.77;;
73699;SDS011;62005;50.082;8.988;2023-02-27T01:56:16;8.68;;;2.50;;
73699;SDS011;62005;50.082;8.988;2023-02-27T01:58:44;4.65;;;1.88;;
73699;SDS011;62005;50.082;8.988;2023-02-27T02:01:13;3.70;;;2.03;;
73699;SDS011;62005;50.082;8.988;2023-02-27T02:03:49;6.65;;;4.03;;
73699;SDS011;62005;50.082;8.988;2023-02-27T02:06:20;5.75;;;1.80;;
73699;SDS011;62005;50.082;8.988;2023-02-27T02:08:46;3.00;;;1.52;;
73699;SDS011;62005;50.082;8.988;2023-02-27T02:11:15;1.88;;;0.73;;
73699;SDS011;62005;50.082;8.988;2023-02-27T02:13:42;3.47;;;1.67;;
73699;SDS011;62005;50.082;8.988;2023-02-27T02:16:24;2.80;;;1.50;;
73699;SDS011;62005;50.082;8.988;2023-02-27T02:18:59;2.58;;;0.98;;
73699;SDS011;62005;50.082;8.988;2023-02-27T02:44:03;3.17;;;1.63;;
73699;SDS011;62005;50.082;8.988;2023-02-27T02:46:40;3.65;;;1.35;;
73699;SDS011;62005;50.082;8.988;2023-02-27T02:49:28;4.55;;;1.45;;
73699;SDS011;62005;50.082;8.988;2023-02-27T02:54:47;2.97;;;1.65;;
73699;SDS011;62005;50.082;8.988;2023-02-27T02:57:22;4.93;;;1.40;;
73699;SDS011;62005;50.082;8.988;2023-02-27T03:00:05;2.88;;;1.27;;
73699;SDS011;62005;50.082;8.988;2023-02-27T03:02:41;3.10;;;1.70;;
73699;SDS011;62005;50.082;8.988;2023-02-27T03:05:13;5.60;;;3.95;;
73699;SDS011;62005;50.082;8.988;2023-02-27T03:07:50;3.13;;;1.33;;
73699;SDS011;62005;50.082;8.988;2023-02-27T03:10:21;2.58;;;1.25;;
73699;SDS011;62005;50.082;8.988;2023-02-27T03:12:58;3.38;;;1.15;;
73699;SDS011;62005;50.082;8.988;2023-02-27T03:15:32;5.10;;;1.45;;
73699;SDS011;62005;50.082;8.988;2023-02-27T03:18:05;1.95;;;1.00;;
73699;SDS011;62005;50.082;8.988;2023-02-27T03:20:40;4.03;;;1.02;;
73699;SDS011;62005;50.082;8.988;2023-02-27T03:23:10;2.20;;;1.52;;
73699;SDS011;62005;50.082;8.988;2023-02-27T03:25:40;2.20;;;0.75;;
73699;SDS011;62005;50.082;8.988;2023-02-27T03:28:11;5.90;;;1.42;;
73699;SDS011;62005;50.082;8.988;2023-02-27T03:30:48;2.95;;;1.05;;
73699;SDS011;62005;50.082;8.988;2023-02-27T03:33:39;1.25;;;0.70;;
73699;SDS011;62005;50.082;8.988;2023-02-27T03:36:33;3.05;;;0.93;;
73699;SDS011;62005;50.082;8.988;2023-02-27T03:41:54;2.08;;;0.93;;
73699;SDS011;62005;50.082;8.988;2023-02-27T03:44:32;3.38;;;0.77;;
73699;SDS011;62005;50.082;8.988;2023-02-27T03:47:14;3.42;;;1.02;;
73699;SDS011;62005;50.082;8.988;2023-02-27T03:49:39;1.67;;;0.43;;
73699;SDS011;62005;50.082;8.988;2023-02-27T03:52:05;1.70;;;0.77;;
73699;SDS011;62005;50.082;8.988;2023-02-27T03:54:32;2.33;;;1.63;;
73699;SDS011;62005;50.082;8.988;2023-02-27T03:57:02;1.77;;;1.10;;
73699;SDS011;62005;50.082;8.988;2023-02-27T03:59:29;1.60;;;1.08;;
73699;SDS011;62005;50.082;8.988;2023-02-27T04:01:56;2.40;;;1.17;;
73699;SDS011;62005;50.082;8.988;2023-02-27T04:04:25;3.97;;;1.08;;
73699;SDS011;62005;50.082;8.988;2023-02-27T04:06:56;3.05;;;2.75;;
73699;SDS011;62005;50.082;8.988;2023-02-27T04:15:31;1.88;;;1.02;;
73699;SDS011;62005;50.082;8.988;2023-02-27T04:21:09;6.15;;;1.25;;
73699;SDS011;62005;50.082;8.988;2023-02-27T04:23:50;2.35;;;0.70;;
73699;SDS011;62005;50.082;8.988;2023-02-27T04:29:12;1.98;;;0.73;;
73699;SDS011;62005;50.082;8.988;2023-02-27T04:34:58;1.85;;;0.82;;
73699;SDS011;62005;50.082;8.988;2023-02-27T04:40:01;2.90;;;1.00;;
73699;SDS011;62005;50.082;8.988;2023-02-27T04:42:32;3.63;;;0.77;;
73699;SDS011;62005;50.082;8.988;2023-02-27T04:45:03;1.15;;;0.70;;
73699;SDS011;62005;50.082;8.988;2023-02-27T04:47:35;4.45;;;1.45;;
73699;SDS011;62005;50.082;8.988;2023-02-27T04:50:08;4.00;;;0.77;;
73699;SDS011;62005;50.082;8.988;2023-02-27T04:52:43;3.70;;;1.42;;
73699;SDS011;62005;50.082;8.988;2023-02-27T04:55:16;2.80;;;1.05;;
73699;SDS011;62005;50.082;8.988;2023-02-27T04:58:33;1.33;;;1.08;;
73699;SDS011;62005;50.082;8.988;2023-02-27T05:00:42;1.30;;;0.80;;
73699;SDS011;62005;50.082;8.988;2023-02-27T05:03:12;4.60;;;1.60;;
73699;SDS011;62005;50.082;8.988;2023-02-27T05:05:42;2.45;;;1.00;;
73699;SDS011;62005;50.082;8.988;2023-02-27T05:11:02;1.60;;;1.00;;
73699;SDS011;62005;50.082;8.988;2023-02-27T05:13:49;2.38;;;0.95;;
73699;SDS011;62005;50.082;8.988;2023-02-27T05:16:20;4.95;;;1.92;;
73699;SDS011;62005;50.082;8.988;2023-02-27T05:18:51;2.22;;;1.35;;
73699;SDS011;62005;50.082;8.988;2023-02-27T05:24:20;2.45;;;1.35;;
73699;SDS011;62005;50.082;8.988;2023-02-27T05:26:53;3.20;;;0.63;;
73699;SDS011;62005;50.082;8.988;2023-02-27T05:32:25;3.58;;;0.75;;
73699;SDS011;62005;50.082;8.988;2023-02-27T05:35:54;1.90;;;0.80;;
73699;SDS011;62005;50.082;8.988;2023-02-27T05:40:40;2.15;;;1.17;;
73699;SDS011;62005;50.082;8.988;2023-02-27T05:43:15;2.08;;;0.77;;
73699;SDS011;62005;50.082;8.988;2023-02-27T05:48:31;2.63;;;0.93;;
73699;SDS011;62005;50.082;8.988;2023-02-27T05:51:00;3.38;;;0.75;;
73699;SDS011;62005;50.082;8.988;2023-02-27T05:53:34;2.03;;;0.68;;
73699;SDS011;62005;50.082;8.988;2023-02-27T05:56:05;1.58;;;1.23;;
73699;SDS011;62005;50.082;8.988;2023-02-27T05:58:46;1.15;;;0.82;;
73699;SDS011;62005;50.082;8.988;2023-02-27T06:03:58;1.27;;;0.60;;
73699;SDS011;62005;50.082;8.988;2023-02-27T06:06:23;2.00;;;0.83;;
73699;SDS011;62005;50.082;8.988;2023-02-27T06:08:48;2.08;;;1.58;;
73699;SDS011;62005;50.082;8.988;2023-02-27T06:11:14;1.83;;;0.70;;
73699;SDS011;62005;50.082;8.988;2023-02-27T06:13:39;2.70;;;0.75;;
73699;SDS011;62005;50.082;8.988;2023-02-27T06:16:06;1.77;;;0.57;;
73699;SDS011;62005;50.082;8.988;2023-02-27T06:18:34;1.60;;;0.82;;
73699;SDS011;62005;50.082;8.988;2023-02-27T06:20:59;1.77;;;1.20;;
73699;SDS011;62005;50.082;8.988;2023-02-27T06:23:25;1.47;;;0.73;;
73699;SDS011;62005;50.082;8.988;2023-02-27T06:25:50;3.00;;;1.23;;
73699;SDS011;62005;50.082;8.988;2023-02-27T06:28:15;3.80;;;0.93;;
73699;SDS011;62005;50.082;8.988;2023-02-27T06:30:41;3.50;;;0.90;;
73699;SDS011;62005;50.082;8.988;2023-02-27T06:33:06;2.10;;;0.80;;
73699;SDS011;62005;50.082;8.988;2023-02-27T06:35:31;1.93;;;0.80;;
73699;SDS011;62005;50.082;8.988;2023-02-27T06:37:57;4.80;;;1.27;;
73699;SDS011;62005;50.082;8.988;2023-02-27T06:40:23;4.60;;;0.98;;
73699;SDS011;62005;50.082;8.988;2023-02-27T06:42:49;1.75;;;0.63;;
73699;SDS011;62005;50.082;8.988;2023-02-27T06:45:14;1.47;;;0.53;;
73699;SDS011;62005;50.082;8.988;2023-02-27T06:47:41;2.10;;;1.17;;
73699;SDS011;62005;50.082;8.988;2023-02-27T06:50:08;1.48;;;0.65;;
73699;SDS011;62005;50.082;8.988;2023-02-27T06:52:35;2.28;;;1.27;;
73699;SDS011;62005;50.082;8.988;2023-02-27T06:55:05;4.70;;;1.33;;
73699;SDS011;62005;50.082;8.988;2023-02-27T06:57:31;4.15;;;1.45;;
73699;SDS011;62005;50.082;8.988;2023-02-27T06:59:57;4.50;;;1.73;;
73699;SDS011;62005;50.082;8.988;2023-02-27T07:02:22;8.43;;;2.57;;
73699;SDS011;62005;50.082;8.988;2023-02-27T07:04:49;6.30;;;1.85;;
73699;SDS011;62005;50.082;8.988;2023-02-27T07:07:15;3.72;;;1.33;;
73699;SDS011;62005;50.082;8.988;2023-02-27T07:09:43;9.38;;;2.85;;
73699;SDS011;62005;50.082;8.988;2023-02-27T07:12:08;4.68;;;1.70;;
73699;SDS011;62005;50.082;8.988;2023-02-27T07:14:34;12.47;;;2.63;;
73699;SDS011;62005;50.082;8.988;2023-02-27T07:16:59;21.27;;;5.17;;
73699;SDS011;62005;50.082;8.988;2023-02-27T07:19:28;13.73;;;3.05;;
73699;SDS011;62005;50.082;8.988;2023-02-27T07:21:54;6.60;;;2.15;;
73699;SDS011;62005;50.082;8.988;2023-02-27T07:24:20;5.47;;;1.77;;
73699;SDS011;62005;50.082;8.988;2023-02-27T07:26:45;11.03;;;3.90;;
73699;SDS011;62005;50.082;8.988;2023-02-27T07:29:10;5.80;;;1.20;;
73699;SDS011;62005;50.082;8.988;2023-02-27T07:31:36;1.77;;;1.25;;
73699;SDS011;62005;50.082;8.988;2023-02-27T07:34:03;1.58;;;0.50;;
73699;SDS011;62005;50.082;8.988;2023-02-27T07:36:29;1.63;;;1.00;;
73699;SDS011;62005;50.082;8.988;2023-02-27T07:38:55;1.55;;;1.00;;
73699;SDS011;62005;50.082;8.988;2023-02-27T07:41:22;1.50;;;0.65;;
73699;SDS011;62005;50.082;8.988;2023-02-27T07:43:47;4.50;;;1.77;;
73699;SDS011;62005;50.082;8.988;2023-02-27T07:46:12;1.70;;;0.90;;
73699;SDS011;62005;50.082;8.988;2023-02-27T07:48:38;2.13;;;0.57;;
73699;SDS011;62005;50.082;8.988;2023-02-27T07:51:04;1.92;;;0.73;;
73699;SDS011;62005;50.082;8.988;2023-02-27T07:53:30;3.80;;;0.82;;
73699;SDS011;62005;50.082;8.988;2023-02-27T07:55:55;1.57;;;0.50;;
73699;SDS011;62005;50.082;8.988;2023-02-27T08:28:37;2.88;;;0.52;;
73699;SDS011;62005;50.082;8.988;2023-02-27T09:17:31;1.00;;;0.57;;
73699;SDS011;62005;50.082;8.988;2023-02-27T09:45:03;1.10;;;0.93;;
73699;SDS011;62005;50.082;8.988;2023-02-27T09:51:57;0.90;;;0.30;;
73699;SDS011;62005;50.082;8.988;2023-02-27T09:54:30;1.08;;;0.40;;
73699;SDS011;62005;50.082;8.988;2023-02-27T10:09:51;0.52;;;0.35;;
73699;SDS011;62005;50.082;8.988;2023-02-27T10:19:44;1.30;;;1.20;;
73699;SDS011;62005;50.082;8.988;2023-02-27T10:25:19;0.65;;;0.20;;
73699;SDS011;62005;50.082;8.988;2023-02-27T10:28:13;1.05;;;0.75;;
73699;SDS011;62005;50.082;8.988;2023-02-27T10:34:35;0.38;;;0.32;;
73699;SDS011;62005;50.082;8.988;2023-02-27T10:37:31;1.92;;;1.83;;
73699;SDS011;62005;50.082;8.988;2023-02-27T10:40:12;0.60;;;0.30;;
73699;SDS011;62005;50.082;8.988;2023-02-27T10:45:05;0.60;;;0.20;;
73699;SDS011;62005;50.082;8.988;2023-02-27T10:47:36;0.73;;;0.30;;
73699;SDS011;62005;50.082;8.988;2023-02-27T10:50:02;0.70;;;0.15;;
73699;SDS011;62005;50.082;8.988;2023-02-27T10:52:52;1.60;;;0.20;;
73699;SDS011;62005;50.082;8.988;2023-02-27T11:03:03;0.60;;;0.20;;
73699;SDS011;62005;50.082;8.988;2023-02-27T11:06:12;0.30;;;0.10;;
73699;SDS011;62005;50.082;8.988;2023-02-27T11:12:26;2.05;;;0.20;;
73699;SDS011;62005;50.082;8.988;2023-02-27T11:15:29;0.47;;;0.20;;
73699;SDS011;62005;50.082;8.988;2023-02-27T11:18:36;1.10;;;0.10;;
73699;SDS011;62005;50.082;8.988;2023-02-27T11:21:35;1.05;;;0.30;;
73699;SDS011;62005;50.082;8.988;2023-02-27T11:24:17;0.93;;;0.20;;
73699;SDS011;62005;50.082;8.988;2023-02-27T11:27:01;0.40;;;0.20;;
73699;SDS011;62005;50.082;8.988;2023-02-27T11:30:05;0.60;;;0.30;;
73699;SDS011;62005;50.082;8.988;2023-02-27T11:32:59;1.98;;;0.30;;
73699;SDS011;62005;50.082;8.988;2023-02-27T11:36:03;0.90;;;0.85;;
73699;SDS011;62005;50.082;8.988;2023-02-27T11:39:02;2.47;;;0.60;;
73699;SDS011;62005;50.082;8.988;2023-02-27T11:42:05;0.60;;;0.20;;
73699;SDS011;62005;50.082;8.988;2023-02-27T11:44:57;0.95;;;0.10;;
73699;SDS011;62005;50.082;8.988;2023-02-27T11:47:37;1.50;;;0.17;;
73699;SDS011;62005;50.082;8.988;2023-02-27T11:56:27;1.55;;;0.20;;
73699;SDS011;62005;50.082;8.988;2023-02-27T12:04:23;0.75;;;0.35;;
73699;SDS011;62005;50.082;8.988;2023-02-27T12:11:10;3.72;;;0.50;;
73699;SDS011;62005;50.082;8.988;2023-02-27T12:13:34;1.50;;;0.30;;
73699;SDS011;62005;50.082;8.988;2023-02-27T12:16:24;4.22;;;0.82;;
73699;SDS011;62005;50.082;8.988;2023-02-27T12:21:57;1.75;;;0.30;;
73699;SDS011;62005;50.082;8.988;2023-02-27T12:25:03;4.68;;;1.13;;
73699;SDS011;62005;50.082;8.988;2023-02-27T12:27:42;1.95;;;1.85;;
73699;SDS011;62005;50.082;8.988;2023-02-27T12:33:36;1.02;;;0.40;;
73699;SDS011;62005;50.082;8.988;2023-02-27T12:36:09;0.38;;;0.30;;
73699;SDS011;62005;50.082;8.988;2023-02-27T12:38:37;0.57;;;0.50;;
73699;SDS011;62005;50.082;8.988;2023-02-27T12:41:06;0.60;;;0.20;;
73699;SDS011;62005;50.082;8.988;2023-02-27T12:46:17;0.98;;;0.20;;
73699;SDS011;62005;50.082;8.988;2023-02-27T12:48:57;0.55;;;0.10;;
73699;SDS011;62005;50.082;8.988;2023-02-27T12:57:04;0.40;;;0.10;;
73699;SDS011;62005;50.082;8.988;2023-02-27T13:04:53;0.73;;;0.40;;
73699;SDS011;62005;50.082;8.988;2023-02-27T13:07:31;0.73;;;0.22;;
73699;SDS011;62005;50.082;8.988;2023-02-27T13:12:53;0.82;;;0.20;;
73699;SDS011;62005;50.082;8.988;2023-02-27T13:18:02;2.28;;;0.10;;
73699;SDS011;62005;50.082;8.988;2023-02-27T13:20:43;0.75;;;0.22;;
73699;SDS011;62005;50.082;8.988;2023-02-27T13:23:30;1.27;;;0.10;;
73699;SDS011;62005;50.082;8.988;2023-02-27T13:26:12;1.58;;;0.20;;
73699;SDS011;62005;50.082;8.988;2023-02-27T13:28:43;1.13;;;0.22;;
73699;SDS011;62005;50.082;8.988;2023-02-27T13:31:21;0.30;;;0.10;;
73699;SDS011;62005;50.082;8.988;2023-02-27T13:33:54;0.82;;;0.15;;
73699;SDS011;62005;50.082;8.988;2023-02-27T13:36:34;0.80;;;0.25;;
73699;SDS011;62005;50.082;8.988;2023-02-27T13:39:12;0.80;;;0.10;;
73699;SDS011;62005;50.082;8.988;2023-02-27T13:42:01;0.60;;;0.45;;
73699;SDS011;62005;50.082;8.988;2023-02-27T13:44:36;1.23;;;0.20;;
73699;SDS011;62005;50.082;8.988;2023-02-27T13:47:30;0.55;;;0.10;;
73699;SDS011;62005;50.082;8.988;2023-02-27T13:50:03;0.38;;;0.10;;
73699;SDS011;62005;50.082;8.988;2023-02-27T13:52:41;0.98;;;0.10;;
73699;SDS011;62005;50.082;8.988;2023-02-27T13:55:17;0.67;;;0.20;;
73699;SDS011;62005;50.082;8.988;2023-02-27T13:57:55;0.65;;;0.22;;
73699;SDS011;62005;50.082;8.988;2023-02-27T14:00:24;0.43;;;0.20;;
73699;SDS011;62005;50.082;8.988;2023-02-27T14:02:59;1.02;;;0.75;;
73699;SDS011;62005;50.082;8.988;2023-02-27T14:05:47;0.22;;;0.10;;
73699;SDS011;62005;50.082;8.988;2023-02-27T14:08:32;1.85;;;0.10;;
73699;SDS011;62005;50.082;8.988;2023-02-27T14:11:25;0.65;;;0.17;;
73699;SDS011;62005;50.082;8.988;2023-02-27T14:20:12;0.52;;;0.20;;
73699;SDS011;62005;50.082;8.988;2023-02-27T14:31:24;0.60;;;0.13;;
73699;SDS011;62005;50.082;8.988;2023-02-27T14:33:53;0.50;;;0.20;;
73699;SDS011;62005;50.082;8.988;2023-02-27T14:36:21;0.50;;;0.15;;
73699;SDS011;62005;50.082;8.988;2023-02-27T14:39:16;2.83;;;0.40;;
73699;SDS011;62005;50.082;8.988;2023-02-27T14:45:04;0.28;;;0.10;;
73699;SDS011;62005;50.082;8.988;2023-02-27T14:47:52;0.60;;;0.22;;
73699;SDS011;62005;50.082;8.988;2023-02-27T14:50:32;0.47;;;0.20;;
73699;SDS011;62005;50.082;8.988;2023-02-27T14:53:01;0.65;;;0.30;;
73699;SDS011;62005;50.082;8.988;2023-02-27T14:55:29;0.65;;;0.10;;
73699;SDS011;62005;50.082;8.988;2023-02-27T15:00:38;0.70;;;0.37;;
73699;SDS011;62005;50.082;8.988;2023-02-27T15:03:10;0.95;;;0.20;;
73699;SDS011;62005;50.082;8.988;2023-02-27T15:08:19;0.30;;;0.10;;
73699;SDS011;62005;50.082;8.988;2023-02-27T15:13:33;0.95;;;0.30;;
73699;SDS011;62005;50.082;8.988;2023-02-27T15:16:25;1.65;;;0.40;;
73699;SDS011;62005;50.082;8.988;2023-02-27T15:18:59;1.75;;;0.43;;
73699;SDS011;62005;50.082;8.988;2023-02-27T15:21:28;0.73;;;0.40;;
73699;SDS011;62005;50.082;8.988;2023-02-27T15:23:57;0.30;;;0.10;;
73699;SDS011;62005;50.082;8.988;2023-02-27T15:26:24;0.80;;;0.43;;
73699;SDS011;62005;50.082;8.988;2023-02-27T15:28:51;1.58;;;0.68;;
73699;SDS011;62005;50.082;8.988;2023-02-27T15:31:18;3.42;;;0.73;;
73699;SDS011;62005;50.082;8.988;2023-02-27T15:33:47;3.58;;;0.88;;
73699;SDS011;62005;50.082;8.988;2023-02-27T15:36:27;1.25;;;0.40;;
73699;SDS011;62005;50.082;8.988;2023-02-27T15:41:51;0.45;;;0.10;;
73699;SDS011;62005;50.082;8.988;2023-02-27T15:44:24;1.58;;;0.75;;
73699;SDS011;62005;50.082;8.988;2023-02-27T15:47:01;1.50;;;0.98;;
73699;SDS011;62005;50.082;8.988;2023-02-27T15:49:27;2.67;;;1.23;;
73699;SDS011;62005;50.082;8.988;2023-02-27T15:52:16;2.72;;;0.50;;
73699;SDS011;62005;50.082;8.988;2023-02-27T15:54:45;1.83;;;0.70;;
73699;SDS011;62005;50.082;8.988;2023-02-27T15:57:16;2.23;;;0.50;;
73699;SDS011;62005;50.082;8.988;2023-02-27T15:59:46;0.73;;;0.28;;
73699;SDS011;62005;50.082;8.988;2023-02-27T16:02:21;1.52;;;0.10;;
73699;SDS011;62005;50.082;8.988;2023-02-27T16:05:34;3.67;;;0.52;;
73699;SDS011;62005;50.082;8.988;2023-02-27T16:08:03;1.25;;;0.60;;
73699;SDS011;62005;50.082;8.988;2023-02-27T16:10:36;2.55;;;0.70;;
73699;SDS011;62005;50.082;8.988;2023-02-27T16:24:46;1.50;;;1.10;;
73699;SDS011;62005;50.082;8.988;2023-02-27T16:27:25;1.85;;;1.45;;
73699;SDS011;62005;50.082;8.988;2023-02-27T16:30:07;2.88;;;2.40;;
73699;SDS011;62005;50.082;8.988;2023-02-27T16:32:40;4.43;;;0.93;;
73699;SDS011;62005;50.082;8.988;2023-02-27T16:35:16;2.42;;;0.50;;
73699;SDS011;62005;50.082;8.988;2023-02-27T16:40:24;2.42;;;0.73;;
73699;SDS011;62005;50.082;8.988;2023-02-27T16:42:55;6.00;;;1.80;;
73699;SDS011;62005;50.082;8.988;2023-02-27T16:45:22;2.78;;;1.05;;
73699;SDS011;62005;50.082;8.988;2023-02-27T16:47:54;2.95;;;1.23;;
73699;SDS011;62005;50.082;8.988;2023-02-27T16:53:01;3.33;;;1.20;;
73699;SDS011;62005;50.082;8.988;2023-02-27T16:55:29;4.97;;;2.13;;
73699;SDS011;62005;50.082;8.988;2023-02-27T16:58:00;9.95;;;3.85;;
73699;SDS011;62005;50.082;8.988;2023-02-27T17:00:39;6.57;;;3.17;;
73699;SDS011;62005;50.082;8.988;2023-02-27T17:03:13;1.50;;;0.70;;
73699;SDS011;62005;50.082;8.988;2023-02-27T17:06:04;1.50;;;0.70;;
73699;SDS011;62005;50.082;8.988;2023-02-27T17:08:33;3.85;;;0.55;;
73699;SDS011;62005;50.082;8.988;2023-02-27T17:11:06;1.13;;;0.45;;
73699;SDS011;62005;50.082;8.988;2023-02-27T17:16:11;2.28;;;0.90;;
73699;SDS011;62005;50.082;8.988;2023-02-27T17:18:39;1.27;;;0.68;;
73699;SDS011;62005;50.082;8.988;2023-02-27T17:21:12;0.82;;;0.43;;
73699;SDS011;62005;50.082;8.988;2023-02-27T17:23:38;2.33;;;0.87;;
73699;SDS011;62005;50.082;8.988;2023-02-27T17:26:03;2.23;;;1.27;;
73699;SDS011;62005;50.082;8.988;2023-02-27T17:28:28;1.60;;;0.73;;
73699;SDS011;62005;50.082;8.988;2023-02-27T17:30:54;0.87;;;0.40;;
73699;SDS011;62005;50.082;8.988;2023-02-27T17:33:19;3.33;;;3.03;;
73699;SDS011;62005;50.082;8.988;2023-02-27T17:35:44;2.03;;;0.90;;
73699;SDS011;62005;50.082;8.988;2023-02-27T17:38:09;2.10;;;0.43;;
73699;SDS011;62005;50.082;8.988;2023-02-27T17:40:35;1.77;;;0.65;;
73699;SDS011;62005;50.082;8.988;2023-02-27T17:43:03;2.05;;;0.70;;
73699;SDS011;62005;50.082;8.988;2023-02-27T17:45:28;1.20;;;0.43;;
73699;SDS011;62005;50.082;8.988;2023-02-27T17:48:04;1.80;;;0.52;;
73699;SDS011;62005;50.082;8.988;2023-02-27T17:50:40;0.77;;;0.32;;
73699;SDS011;62005;50.082;8.988;2023-02-27T17:53:05;2.17;;;0.50;;
73699;SDS011;62005;50.082;8.988;2023-02-27T17:55:33;0.90;;;0.30;;
73699;SDS011;62005;50.082;8.988;2023-02-27T17:57:59;0.80;;;0.38;;
73699;SDS011;62005;50.082;8.988;2023-02-27T18:00:27;1.57;;;0.37;;
73699;SDS011;62005;50.082;8.988;2023-02-27T18:02:55;1.33;;;0.60;;
73699;SDS011;62005;50.082;8.988;2023-02-27T18:05:26;2.40;;;0.60;;
73699;SDS011;62005;50.082;8.988;2023-02-27T18:07:52;2.08;;;0.40;;
73699;SDS011;62005;50.082;8.988;2023-02-27T18:10:20;1.35;;;0.55;;
73699;SDS011;62005;50.082;8.988;2023-02-27T18:12:48;2.47;;;1.48;;
73699;SDS011;62005;50.082;8.988;2023-02-27T18:15:13;3.10;;;0.90;;
73699;SDS011;62005;50.082;8.988;2023-02-27T18:17:38;0.90;;;0.40;;
73699;SDS011;62005;50.082;8.988;2023-02-27T18:20:06;1.88;;;0.60;;
73699;SDS011;62005;50.082;8.988;2023-02-27T18:22:33;2.88;;;0.77;;
73699;SDS011;62005;50.082;8.988;2023-02-27T18:24:58;2.57;;;1.13;;
73699;SDS011;62005;50.082;8.988;2023-02-27T18:27:24;1.45;;;0.30;;
73699;SDS011;62005;50.082;8.988;2023-02-27T18:29:51;3.63;;;2.25;;
73699;SDS011;62005;50.082;8.988;2023-02-27T18:32:17;1.38;;;0.35;;
73699;SDS011;62005;50.082;8.988;2023-02-27T18:34:43;2.88;;;1.55;;
73699;SDS011;62005;50.082;8.988;2023-02-27T18:37:09;0.90;;;0.20;;
73699;SDS011;62005;50.082;8.988;2023-02-27T18:39:34;1.63;;;0.70;;
73699;SDS011;62005;50.082;8.988;2023-02-27T18:42:09;1.27;;;0.45;;
73699;SDS011;62005;50.082;8.988;2023-02-27T18:44:52;1.85;;;0.82;;
73699;SDS011;62005;50.082;8.988;2023-02-27T18:47:23;2.15;;;0.65;;
73699;SDS011;62005;50.082;8.988;2023-02-27T18:49:49;2.00;;;1.27;;
73699;SDS011;62005;50.082;8.988;2023-02-27T18:52:18;1.92;;;0.60;;
73699;SDS011;62005;50.082;8.988;2023-02-27T18:54:48;2.88;;;2.10;;
73699;SDS011;62005;50.082;8.988;2023-02-27T18:57:35;2.35;;;1.00;;
73699;SDS011;62005;50.082;8.988;2023-02-27T19:00:15;2.28;;;1.20;;
73699;SDS011;62005;50.082;8.988;2023-02-27T19:05:37;1.55;;;1.02;;
73699;SDS011;62005;50.082;8.988;2023-02-27T19:08:17;3.05;;;1.17;;
73699;SDS011;62005;50.082;8.988;2023-02-27T19:10:48;2.80;;;1.40;;
73699;SDS011;62005;50.082;8.988;2023-02-27T19:13:22;3.45;;;1.35;;
73699;SDS011;62005;50.082;8.988;2023-02-27T19:15:55;4.15;;;3.10;;
73699;SDS011;62005;50.082;8.988;2023-02-27T19:18:38;4.93;;;2.50;;
73699;SDS011;62005;50.082;8.988;2023-02-27T19:21:03;2.47;;;1.45;;
73699;SDS011;62005;50.082;8.988;2023-02-27T19:23:29;9.77;;;1.10;;
73699;SDS011;62005;50.082;8.988;2023-02-27T19:25:58;1.60;;;0.57;;
73699;SDS011;62005;50.082;8.988;2023-02-27T19:28:27;1.60;;;1.30;;
73699;SDS011;62005;50.082;8.988;2023-02-27T19:30:53;1.23;;;0.40;;
73699;SDS011;62005;50.082;8.988;2023-02-27T19:33:18;2.05;;;0.73;;
73699;SDS011;62005;50.082;8.988;2023-02-27T19:35:44;2.58;;;0.90;;
73699;SDS011;62005;50.082;8.988;2023-02-27T19:38:09;5.77;;;1.10;;
73699;SDS011;62005;50.082;8.988;2023-02-27T19:40:35;5.53;;;1.95;;
73699;SDS011;62005;50.082;8.988;2023-02-27T19:43:00;5.07;;;0.97;;
73699;SDS011;62005;50.082;8.988;2023-02-27T19:45:26;3.78;;;1.35;;
73699;SDS011;62005;50.082;8.988;2023-02-27T19:47:52;2.13;;;0.98;;
73699;SDS011;62005;50.082;8.988;2023-02-27T19:50:17;2.47;;;0.63;;
73699;SDS011;62005;50.082;8.988;2023-02-27T19:52:43;2.17;;;0.82;;
73699;SDS011;62005;50.082;8.988;2023-02-27T19:55:08;4.50;;;1.17;;
73699;SDS011;62005;50.082;8.988;2023-02-27T19:57:34;2.42;;;0.60;;
73699;SDS011;62005;50.082;8.988;2023-02-27T20:00:00;2.05;;;0.75;;
73699;SDS011;62005;50.082;8.988;2023-02-27T20:02:29;5.70;;;1.27;;
73699;SDS011;62005;50.082;8.988;2023-02-27T20:04:55;0.90;;;0.30;;
73699;SDS011;62005;50.082;8.988;2023-02-27T20:07:21;0.85;;;0.55;;
73699;SDS011;62005;50.082;8.988;2023-02-27T20:09:47;1.33;;;0.50;;
73699;SDS011;62005;50.082;8.988;2023-02-27T20:12:13;2.50;;;0.82;;
73699;SDS011;62005;50.082;8.988;2023-02-27T20:14:38;12.10;;;3.50;;
73699;SDS011;62005;50.082;8.988;2023-02-27T20:17:04;7.43;;;1.83;;
73699;SDS011;62005;50.082;8.988;2023-02-27T20:19:31;8.75;;;3.58;;
73699;SDS011;62005;50.082;8.988;2023-02-27T20:21:58;4.10;;;1.00;;
73699;SDS011;62005;50.082;8.988;2023-02-27T20:24:32;14.38;;;0.88;;